sensor_id;sensor_type;location;lat;lon;timestamp;pressure;altitude;pressure_sealevel;temperature;humidity
29331;BME280;16331;52.528;13.342;2023-07-13T00:01:48;161551.22;;;21.26;100.00
29331;BME280;16331;52.528;13.342;2023-07-13T00:04:18;161509.72;;;21.11;100.00
29331;BME280;16331;52.528;13.342;2023-07-13T00:06:45;161493.06;;;21.05;100.00
29331;BME280;16331;52.528;13.342;2023-07-13T00:09:13;161502.78;;;21.08;100.00
29331;BME280;16331;52.528;13.342;2023-07-13T00:11:40;161511.06;;;21.11;100.00
29331;BME280;16331;52.528;13.342;2023-07-13T00:14:06;161482.03;;;21.01;100.00
29331;BME280;16331;52.528;13.342;2023-07-13T00:16:34;161518.03;;;21.14;100.00
29331;BME280;16331;52.528;13.342;2023-07-13T00:19:01;161541.53;;;21.22;100.00
29331;BME280;16331;52.528;13.342;2023-07-13T00:21:27;161583.09;;;21.37;100.00
29331;BME280;16331;52.528;13.342;2023-07-13T00:23:55;161567.88;;;21.32;100.00
29331;BME280;16331;52.528;13.342;2023-07-13T00:26:21;161565.09;;;21.31;100.00
29331;BME280;16331;52.528;13.342;2023-07-13T00:28:48;161505.56;;;21.09;100.00
29331;BME280;16331;52.528;13.342;2023-07-13T00:31:15;161523.56;;;21.16;100.00
29331;BME280;16331;52.528;13.342;2023-07-13T00:33:41;161542.91;;;21.23;100.00
29331;BME280;16331;52.528;13.342;2023-07-13T00:36:09;161570.63;;;21.33;100.00
29331;BME280;16331;52.528;13.342;2023-07-13T00:38:36;161573.38;;;21.34;100.00
29331;BME280;16331;52.528;13.342;2023-07-13T00:41:03;161555.38;;;21.27;100.00
29331;BME280;16331;52.528;13.342;2023-07-13T00:43:30;161606.63;;;21.46;100.00
29331;BME280;16331;52.528;13.342;2023-07-13T00:48:33;161490.31;;;21.04;100.00
29331;BME280;16331;52.528;13.342;2023-07-13T00:51:01;161479.28;;;21.00;100.00
29331;BME280;16331;52.528;13.342;2023-07-13T00:53:30;161462.56;;;20.94;100.00
29331;BME280;16331;52.528;13.342;2023-07-13T00:55:57;161437.66;;;20.85;100.00
29331;BME280;16331;52.528;13.342;2023-07-13T00:58:26;161515.22;;;21.13;100.00
29331;BME280;16331;52.528;13.342;2023-07-13T01:00:53;161400.28;;;20.71;100.00
29331;BME280;16331;52.528;13.342;2023-07-13T01:03:20;161433.53;;;20.83;100.00
29331;BME280;16331;52.528;13.342;2023-07-13T01:05:48;161441.81;;;20.86;100.00
29331;BME280;16331;52.528;13.342;2023-07-13T01:08:16;161422.41;;;20.79;100.00
29331;BME280;16331;52.528;13.342;2023-07-13T01:10:50;161443.22;;;20.87;100.00
29331;BME280;16331;52.528;13.342;2023-07-13T01:13:16;161463.97;;;20.94;100.00
29331;BME280;16331;52.528;13.342;2023-07-13T01:15:48;161472.31;;;20.97;100.00
29331;BME280;16331;52.528;13.342;2023-07-13T01:18:26;161393.38;;;20.69;100.00
29331;BME280;16331;52.528;13.342;2023-07-13T01:20:57;161339.41;;;20.49;100.00
29331;BME280;16331;52.528;13.342;2023-07-13T01:23:24;161421.06;;;20.79;100.00
29331;BME280;16331;52.528;13.342;2023-07-13T01:25:52;161409.97;;;20.75;100.00
29331;BME280;16331;52.528;13.342;2023-07-13T01:28:19;161459.81;;;20.93;100.00
29331;BME280;16331;52.528;13.342;2023-07-13T01:30:47;161500.03;;;21.07;100.00
29331;BME280;16331;52.528;13.342;2023-07-13T01:33:16;161519.44;;;21.14;100.00
29331;BME280;16331;52.528;13.342;2023-07-13T01:35:45;161504.16;;;21.09;100.00
29331;BME280;16331;52.528;13.342;2023-07-13T01:38:15;161504.16;;;21.09;100.00
29331;BME280;16331;52.528;13.342;2023-07-13T01:40:43;161486.16;;;21.02;100.00
29331;BME280;16331;52.528;13.342;2023-07-13T01:43:11;161488.91;;;21.03;100.00
29331;BME280;16331;52.528;13.342;2023-07-13T01:45:37;161469.56;;;20.96;100.00
29331;BME280;16331;52.528;13.342;2023-07-13T01:48:04;161536.03;;;21.20;100.00
29331;BME280;16331;52.528;13.342;2023-07-13T01:50:34;161572.03;;;21.33;100.00
29331;BME280;16331;52.528;13.342;2023-07-13T01:53:01;161541.53;;;21.22;100.00
29331;BME280;16331;52.528;13.342;2023-07-13T01:55:28;161500.03;;;21.07;100.00
29331;BME280;16331;52.528;13.342;2023-07-13T01:57:55;161477.88;;;20.99;100.00
29331;BME280;16331;52.528;13.342;2023-07-13T02:00:21;161518.03;;;21.14;100.00
29331;BME280;16331;52.528;13.342;2023-07-13T02:02:49;161522.16;;;21.15;100.00
29331;BME280;16331;52.528;13.342;2023-07-13T02:05:16;161443.22;;;20.87;100.00
29331;BME280;16331;52.528;13.342;2023-07-13T02:07:42;161387.84;;;20.67;100.00
29331;BME280;16331;52.528;13.342;2023-07-13T02:10:10;161318.66;;;20.42;100.00
29331;BME280;16331;52.528;13.342;2023-07-13T02:12:37;161313.13;;;20.40;100.00
29331;BME280;16331;52.528;13.342;2023-07-13T02:15:05;161346.34;;;20.52;100.00
29331;BME280;16331;52.528;13.342;2023-07-13T02:17:31;161344.94;;;20.51;100.00
29331;BME280;16331;52.528;13.342;2023-07-13T02:19:58;161321.41;;;20.43;100.00
29331;BME280;16331;52.528;13.342;2023-07-13T02:22:27;161432.13;;;20.83;100.00
29331;BME280;16331;52.528;13.342;2023-07-13T02:24:53;161404.47;;;20.73;100.00
29331;BME280;16331;52.528;13.342;2023-07-13T02:27:20;161350.50;;;20.53;100.00
29331;BME280;16331;52.528;13.342;2023-07-13T02:29:46;161281.28;;;20.28;100.00
29331;BME280;16331;52.528;13.342;2023-07-13T02:32:12;161371.25;;;20.61;100.00
29331;BME280;16331;52.528;13.342;2023-07-13T02:34:40;161390.63;;;20.68;100.00
29331;BME280;16331;52.528;13.342;2023-07-13T02:37:06;161357.41;;;20.56;100.00
29331;BME280;16331;52.528;13.342;2023-07-13T02:39:32;161353.25;;;20.54;100.00
29331;BME280;16331;52.528;13.342;2023-07-13T02:41:59;161354.66;;;20.55;100.00
29331;BME280;16331;52.528;13.342;2023-07-13T02:44:26;161340.81;;;20.50;100.00
29331;BME280;16331;52.528;13.342;2023-07-13T02:46:52;161299.28;;;20.35;100.00
29331;BME280;16331;52.528;13.342;2023-07-13T02:49:18;161346.34;;;20.52;100.00
29331;BME280;16331;52.528;13.342;2023-07-13T02:51:45;161357.41;;;20.56;100.00
29331;BME280;16331;52.528;13.342;2023-07-13T02:54:11;161340.81;;;20.50;100.00
29331;BME280;16331;52.528;13.342;2023-07-13T02:56:40;161326.97;;;20.45;100.00
29331;BME280;16331;52.528;13.342;2023-07-13T02:59:06;161304.81;;;20.37;100.00
29331;BME280;16331;52.528;13.342;2023-07-13T03:01:33;161306.22;;;20.37;100.00
29331;BME280;16331;52.528;13.342;2023-07-13T03:04:01;161289.63;;;20.31;100.00
29331;BME280;16331;52.528;13.342;2023-07-13T03:06:27;161260.53;;;20.21;100.00
29331;BME280;16331;52.528;13.342;2023-07-13T03:08:56;161261.94;;;20.21;100.00
29331;BME280;16331;52.528;13.342;2023-07-13T03:11:22;161249.50;;;20.17;100.00
29331;BME280;16331;52.528;13.342;2023-07-13T03:13:49;161246.69;;;20.16;100.00
29331;BME280;16331;52.528;13.342;2023-07-13T03:16:16;161241.16;;;20.13;100.00
29331;BME280;16331;52.528;13.342;2023-07-13T03:18:42;161249.50;;;20.17;100.00
29331;BME280;16331;52.528;13.342;2023-07-13T03:21:08;161238.34;;;20.12;100.00
29331;BME280;16331;52.528;13.342;2023-07-13T03:23:35;161248.09;;;20.16;100.00
29331;BME280;16331;52.528;13.342;2023-07-13T03:26:10;161250.84;;;20.17;100.00
29331;BME280;16331;52.528;13.342;2023-07-13T03:28:37;161239.75;;;20.13;100.00
29331;BME280;16331;52.528;13.342;2023-07-13T03:31:12;161219.03;;;20.05;100.00
29331;BME280;16331;52.528;13.342;2023-07-13T03:33:41;161216.22;;;20.04;100.00
29331;BME280;16331;52.528;13.342;2023-07-13T03:36:12;161235.59;;;20.11;100.00
29331;BME280;16331;52.528;13.342;2023-07-13T03:38:39;161189.94;;;19.95;100.00
29331;BME280;16331;52.528;13.342;2023-07-13T03:41:06;161188.53;;;19.94;100.00
29331;BME280;16331;52.528;13.342;2023-07-13T03:43:32;161180.25;;;19.91;100.00
29331;BME280;16331;52.528;13.342;2023-07-13T03:45:58;161194.09;;;19.96;100.00
29331;BME280;16331;52.528;13.342;2023-07-13T03:48:25;161185.81;;;19.93;100.00
29331;BME280;16331;52.528;13.342;2023-07-13T03:50:52;161205.19;;;20.00;100.00
29331;BME280;16331;52.528;13.342;2023-07-13T03:53:18;161207.94;;;20.01;100.00
29331;BME280;16331;52.528;13.342;2023-07-13T03:55:45;161198.25;;;19.98;100.00
29331;BME280;16331;52.528;13.342;2023-07-13T03:58:32;161213.47;;;20.03;100.00
29331;BME280;16331;52.528;13.342;2023-07-13T04:00:59;161181.66;;;19.92;100.00
29331;BME280;16331;52.528;13.342;2023-07-13T04:03:27;161221.78;;;20.06;100.00
29331;BME280;16331;52.528;13.342;2023-07-13T04:05:55;161227.31;;;20.08;100.00
29331;BME280;16331;52.528;13.342;2023-07-13T04:08:26;161170.63;;;19.88;100.00
29331;BME280;16331;52.528;13.342;2023-07-13T04:10:53;161199.63;;;19.98;100.00
29331;BME280;16331;52.528;13.342;2023-07-13T04:13:19;161183.06;;;19.92;100.00
29331;BME280;16331;52.528;13.342;2023-07-13T04:15:45;161198.25;;;19.98;100.00
29331;BME280;16331;52.528;13.342;2023-07-13T04:18:11;161216.22;;;20.04;100.00
29331;BME280;16331;52.528;13.342;2023-07-13T04:20:37;161238.34;;;20.12;100.00
29331;BME280;16331;52.528;13.342;2023-07-13T04:23:04;161231.47;;;20.10;100.00
29331;BME280;16331;52.528;13.342;2023-07-13T04:25:30;161221.78;;;20.06;100.00
29331;BME280;16331;52.528;13.342;2023-07-13T04:27:56;161253.66;;;20.18;100.00
29331;BME280;16331;52.528;13.342;2023-07-13T04:30:22;161257.81;;;20.20;100.00
29331;BME280;16331;52.528;13.342;2023-07-13T04:32:50;161314.50;;;20.40;100.00
29331;BME280;16331;52.528;13.342;2023-07-13T04:35:18;161364.34;;;20.58;100.00
29331;BME280;16331;52.528;13.342;2023-07-13T04:37:47;161451.53;;;20.90;100.00
29331;BME280;16331;52.528;13.342;2023-07-13T04:40:16;161494.47;;;21.05;100.00
29331;BME280;16331;52.528;13.342;2023-07-13T04:42:43;161468.13;;;20.96;100.00
29331;BME280;16331;52.528;13.342;2023-07-13T04:45:11;161482.03;;;21.01;100.00
29331;BME280;16331;52.528;13.342;2023-07-13T04:47:39;161433.53;;;20.83;100.00
29331;BME280;16331;52.528;13.342;2023-07-13T04:50:07;161434.94;;;20.84;100.00
29331;BME280;16331;52.528;13.342;2023-07-13T04:52:35;161429.38;;;20.82;100.00
29331;BME280;16331;52.528;13.342;2023-07-13T04:55:01;161407.22;;;20.74;100.00
29331;BME280;16331;52.528;13.342;2023-07-13T04:57:28;161365.69;;;20.59;100.00
29331;BME280;16331;52.528;13.342;2023-07-13T04:59:54;161393.38;;;20.69;100.00
29331;BME280;16331;52.528;13.342;2023-07-13T05:02:21;161421.06;;;20.79;100.00
29331;BME280;16331;52.528;13.342;2023-07-13T05:04:48;161385.09;;;20.66;100.00
29331;BME280;16331;52.528;13.342;2023-07-13T05:07:14;161439.06;;;20.85;100.00
29331;BME280;16331;52.528;13.342;2023-07-13T05:09:40;161426.63;;;20.81;100.00
29331;BME280;16331;52.528;13.342;2023-07-13T05:12:08;161469.56;;;20.96;100.00
29331;BME280;16331;52.528;13.342;2023-07-13T05:14:34;161482.03;;;21.01;100.00
29331;BME280;16331;52.528;13.342;2023-07-13T05:17:01;161551.22;;;21.26;100.00
29331;BME280;16331;52.528;13.342;2023-07-13T05:19:27;161698.09;;;21.79;100.00
29331;BME280;16331;52.528;13.342;2023-07-13T05:21:53;161819.97;;;22.23;100.00
29331;BME280;16331;52.528;13.342;2023-07-13T05:24:19;161860.16;;;22.38;100.00
29331;BME280;16331;52.528;13.342;2023-07-13T05:26:46;161836.66;;;22.29;100.00
29331;BME280;16331;52.528;13.342;2023-07-13T05:29:12;161842.16;;;22.31;100.00
29331;BME280;16331;52.528;13.342;2023-07-13T05:31:38;161797.88;;;22.15;100.00
29331;BME280;16331;52.528;13.342;2023-07-13T05:34:04;161793.66;;;22.14;100.00
29331;BME280;16331;52.528;13.342;2023-07-13T05:36:31;161686.97;;;21.75;100.00
29331;BME280;16331;52.528;13.342;2023-07-13T05:38:59;161659.25;;;21.65;100.00
29331;BME280;16331;52.528;13.342;2023-07-13T05:41:26;161667.56;;;21.68;100.00
29331;BME280;16331;52.528;13.342;2023-07-13T05:43:53;161695.34;;;21.78;100.00
29331;BME280;16331;52.528;13.342;2023-07-13T05:46:19;161702.25;;;21.81;100.00
29331;BME280;16331;52.528;13.342;2023-07-13T05:48:47;161698.09;;;21.79;100.00
29331;BME280;16331;52.528;13.342;2023-07-13T05:51:14;161764.59;;;22.03;100.00
29331;BME280;16331;52.528;13.342;2023-07-13T05:53:40;161767.34;;;22.04;100.00
29331;BME280;16331;52.528;13.342;2023-07-13T05:56:09;161770.16;;;22.05;100.00
29331;BME280;16331;52.528;13.342;2023-07-13T05:58:37;161765.97;;;22.04;100.00
29331;BME280;16331;52.528;13.342;2023-07-13T06:01:06;161727.16;;;21.90;100.00
29331;BME280;16331;52.528;13.342;2023-07-13T06:03:33;161736.88;;;21.93;100.00
29331;BME280;16331;52.528;13.342;2023-07-13T06:06:00;161732.72;;;21.92;100.00
29331;BME280;16331;52.528;13.342;2023-07-13T06:08:31;161792.31;;;22.13;100.00
29331;BME280;16331;52.528;13.342;2023-07-13T06:11:17;161826.94;;;22.26;100.00
29331;BME280;16331;52.528;13.342;2023-07-13T06:13:43;161897.63;;;22.51;100.00
29331;BME280;16331;52.528;13.342;2023-07-13T06:16:13;161966.97;;;22.76;100.00
29331;BME280;16331;52.528;13.342;2023-07-13T06:18:40;161972.53;;;22.78;100.00
29331;BME280;16331;52.528;13.342;2023-07-13T06:21:21;161907.38;;;22.55;100.00
29331;BME280;16331;52.528;13.342;2023-07-13T06:23:49;161966.97;;;22.76;100.00
29331;BME280;16331;52.528;13.342;2023-07-13T06:26:16;161926.75;;;22.62;100.00
29331;BME280;16331;52.528;13.342;2023-07-13T06:28:42;161911.53;;;22.56;100.00
29331;BME280;16331;52.528;13.342;2023-07-13T06:31:10;161789.50;;;22.12;100.00
29331;BME280;16331;52.528;13.342;2023-07-13T06:33:37;161756.28;;;22.00;100.00
29331;BME280;16331;52.528;13.342;2023-07-13T06:36:05;161807.53;;;22.19;100.00
29331;BME280;16331;52.528;13.342;2023-07-13T06:38:31;161928.16;;;22.62;100.00
29331;BME280;16331;52.528;13.342;2023-07-13T06:40:58;161957.25;;;22.73;100.00
29331;BME280;16331;52.528;13.342;2023-07-13T06:43:27;161936.47;;;22.65;100.00
29331;BME280;16331;52.528;13.342;2023-07-13T06:45:55;161978.06;;;22.80;100.00
29331;BME280;16331;52.528;13.342;2023-07-13T06:48:22;161960.06;;;22.74;100.00
29331;BME280;16331;52.528;13.342;2023-07-13T06:50:49;161962.81;;;22.75;100.00
29331;BME280;16331;52.528;13.342;2023-07-13T06:53:18;161975.28;;;22.79;100.00
29331;BME280;16331;52.528;13.342;2023-07-13T06:55:45;161957.25;;;22.73;100.00
29331;BME280;16331;52.528;13.342;2023-07-13T06:58:12;161955.91;;;22.72;100.00
29331;BME280;16331;52.528;13.342;2023-07-13T07:00:38;161980.84;;;22.81;100.00
29331;BME280;16331;52.528;13.342;2023-07-13T07:03:06;161990.53;;;22.85;100.00
29331;BME280;16331;52.528;13.342;2023-07-13T07:05:33;162030.75;;;23.00;100.00
29331;BME280;16331;52.528;13.342;2023-07-13T07:08:00;162079.28;;;23.17;100.00
29331;BME280;16331;52.528;13.342;2023-07-13T07:10:28;162079.28;;;23.17;100.00
29331;BME280;16331;52.528;13.342;2023-07-13T07:12:56;162101.47;;;23.25;100.00
29331;BME280;16331;52.528;13.342;2023-07-13T07:15:22;162130.63;;;23.36;100.00
29331;BME280;16331;52.528;13.342;2023-07-13T07:17:48;162093.16;;;23.22;100.00
29331;BME280;16331;52.528;13.342;2023-07-13T07:20:14;162169.44;;;23.50;100.00
29331;BME280;16331;52.528;13.342;2023-07-13T07:22:40;162256.88;;;23.81;100.00
29331;BME280;16331;52.528;13.342;2023-07-13T07:25:07;162330.47;;;24.08;99.68
29331;BME280;16331;52.528;13.342;2023-07-13T07:27:34;162237.44;;;23.74;100.00
29331;BME280;16331;52.528;13.342;2023-07-13T07:30:00;162244.41;;;23.77;100.00
29331;BME280;16331;52.528;13.342;2023-07-13T07:32:30;162290.16;;;23.93;100.00
29331;BME280;16331;52.528;13.342;2023-07-13T07:34:57;162247.16;;;23.78;99.93
29331;BME280;16331;52.528;13.342;2023-07-13T07:37:24;162340.19;;;24.11;97.72
29331;BME280;16331;52.528;13.342;2023-07-13T07:39:50;162291.56;;;23.94;95.31
29331;BME280;16331;52.528;13.342;2023-07-13T07:42:19;162355.41;;;24.17;94.43
29331;BME280;16331;52.528;13.342;2023-07-13T07:44:45;162377.63;;;24.25;91.03
29331;BME280;16331;52.528;13.342;2023-07-13T07:47:11;162386.00;;;24.28;90.24
29331;BME280;16331;52.528;13.342;2023-07-13T07:49:38;162383.19;;;24.27;89.58
29331;BME280;16331;52.528;13.342;2023-07-13T07:52:04;162488.69;;;24.65;88.11
29331;BME280;16331;52.528;13.342;2023-07-13T07:54:31;162531.81;;;24.81;87.15
29331;BME280;16331;52.528;13.342;2023-07-13T07:56:57;162501.28;;;24.70;86.82
29331;BME280;16331;52.528;13.342;2023-07-13T07:59:23;162394.31;;;24.31;89.05
29331;BME280;16331;52.528;13.342;2023-07-13T08:01:50;162430.41;;;24.44;89.67
29331;BME280;16331;52.528;13.342;2023-07-13T08:04:16;162474.84;;;24.60;87.03
29331;BME280;16331;52.528;13.342;2023-07-13T08:06:42;162442.91;;;24.49;88.64
29331;BME280;16331;52.528;13.342;2023-07-13T08:09:09;162442.91;;;24.49;88.42
29331;BME280;16331;52.528;13.342;2023-07-13T08:11:36;162476.19;;;24.61;86.28
29331;BME280;16331;52.528;13.342;2023-07-13T08:14:03;162530.41;;;24.80;85.12
29331;BME280;16331;52.528;13.342;2023-07-13T08:16:30;162481.75;;;24.63;86.08
29331;BME280;16331;52.528;13.342;2023-07-13T08:18:57;162542.91;;;24.85;85.31
29331;BME280;16331;52.528;13.342;2023-07-13T08:21:23;162602.63;;;25.06;85.64
29331;BME280;16331;52.528;13.342;2023-07-13T08:23:50;162638.75;;;25.19;87.55
29331;BME280;16331;52.528;13.342;2023-07-13T08:26:19;162616.53;;;25.11;88.82
29331;BME280;16331;52.528;13.342;2023-07-13T08:28:46;162502.63;;;24.70;90.15
29331;BME280;16331;52.528;13.342;2023-07-13T08:31:14;162474.84;;;24.60;88.58
29331;BME280;16331;52.528;13.342;2023-07-13T08:33:41;162587.34;;;25.01;86.34
29331;BME280;16331;52.528;13.342;2023-07-13T08:36:12;162716.56;;;25.47;80.06
29331;BME280;16331;52.528;13.342;2023-07-13T08:38:38;162530.41;;;24.80;80.60
29331;BME280;16331;52.528;13.342;2023-07-13T08:41:13;162584.56;;;25.00;78.77
29331;BME280;16331;52.528;13.342;2023-07-13T08:43:44;162681.84;;;25.35;78.51
29331;BME280;16331;52.528;13.342;2023-07-13T08:46:19;162613.72;;;25.10;79.57
29331;BME280;16331;52.528;13.342;2023-07-13T08:48:56;162584.56;;;25.00;75.48
29331;BME280;16331;52.528;13.342;2023-07-13T08:51:51;162488.69;;;24.65;77.84
29331;BME280;16331;52.528;13.342;2023-07-13T08:54:41;162434.56;;;24.46;81.00
29331;BME280;16331;52.528;13.342;2023-07-13T08:57:15;162487.31;;;24.65;81.92
29331;BME280;16331;52.528;13.342;2023-07-13T08:59:43;162633.19;;;25.17;75.92
29331;BME280;16331;52.528;13.342;2023-07-13T09:10:55;162512.34;;;24.74;77.52
29331;BME280;16331;52.528;13.342;2023-07-13T09:14:06;162480.34;;;24.62;72.88
29331;BME280;16331;52.528;13.342;2023-07-13T09:16:45;162477.59;;;24.61;74.92
29331;BME280;16331;52.528;13.342;2023-07-13T09:19:24;162445.66;;;24.50;73.30
29331;BME280;16331;52.528;13.342;2023-07-13T09:22:16;162472.03;;;24.59;74.17
29331;BME280;16331;52.528;13.342;2023-07-13T09:27:39;162510.94;;;24.73;72.70
29331;BME280;16331;52.528;13.342;2023-07-13T09:32:50;162447.06;;;24.50;70.29
29331;BME280;16331;52.528;13.342;2023-07-13T09:35:28;162544.31;;;24.85;68.05
29331;BME280;16331;52.528;13.342;2023-07-13T09:37:59;162642.91;;;25.21;64.52
29331;BME280;16331;52.528;13.342;2023-07-13T09:40:39;162547.06;;;24.86;67.81
29331;BME280;16331;52.528;13.342;2023-07-13T09:43:10;162570.69;;;24.95;65.48
29331;BME280;16331;52.528;13.342;2023-07-13T09:45:47;162648.44;;;25.23;62.93
29331;BME280;16331;52.528;13.342;2023-07-13T09:48:18;162719.31;;;25.48;59.83
29331;BME280;16331;52.528;13.342;2023-07-13T09:51:29;162585.94;;;25.00;64.27
29331;BME280;16331;52.528;13.342;2023-07-13T09:53:38;162626.19;;;25.15;63.62
29331;BME280;16331;52.528;13.342;2023-07-13T09:56:04;162708.22;;;25.44;62.95
29331;BME280;16331;52.528;13.342;2023-07-13T09:58:44;162720.72;;;25.49;60.78
29331;BME280;16331;52.528;13.342;2023-07-13T10:01:11;162692.94;;;25.39;63.38
29331;BME280;16331;52.528;13.342;2023-07-13T10:03:57;162900.06;;;26.14;60.53
29331;BME280;16331;52.528;13.342;2023-07-13T10:06:24;163000.13;;;26.50;59.47
29331;BME280;16331;52.528;13.342;2023-07-13T10:08:55;162947.28;;;26.31;58.36
29331;BME280;16331;52.528;13.342;2023-07-13T10:11:28;162876.41;;;26.05;60.12
29331;BME280;16331;52.528;13.342;2023-07-13T10:14:01;162975.13;;;26.41;57.49
29331;BME280;16331;52.528;13.342;2023-07-13T10:16:43;163046.06;;;26.66;55.66
29331;BME280;16331;52.528;13.342;2023-07-13T10:19:18;163169.84;;;27.11;54.58
29331;BME280;16331;52.528;13.342;2023-07-13T10:21:54;163194.84;;;27.20;53.80
29331;BME280;16331;52.528;13.342;2023-07-13T10:24:23;163143.41;;;27.02;52.88
29331;BME280;16331;52.528;13.342;2023-07-13T10:32:40;163041.91;;;26.65;54.46
29331;BME280;16331;52.528;13.342;2023-07-13T10:35:14;162980.63;;;26.43;54.63
29331;BME280;16331;52.528;13.342;2023-07-13T10:37:59;163020.97;;;26.57;54.52
29331;BME280;16331;52.528;13.342;2023-07-13T10:40:40;162905.56;;;26.16;56.04
29331;BME280;16331;52.528;13.342;2023-07-13T10:43:22;162895.88;;;26.12;56.36
29331;BME280;16331;52.528;13.342;2023-07-13T10:45:51;162856.88;;;25.98;54.68
29331;BME280;16331;52.528;13.342;2023-07-13T10:48:18;162865.25;;;26.01;56.00
29331;BME280;16331;52.528;13.342;2023-07-13T10:50:46;162890.31;;;26.10;55.28
29331;BME280;16331;52.528;13.342;2023-07-13T10:53:33;162905.56;;;26.16;55.17
29331;BME280;16331;52.528;13.342;2023-07-13T10:56:03;162869.44;;;26.03;56.51
29331;BME280;16331;52.528;13.342;2023-07-13T10:58:40;162824.97;;;25.87;57.64
29331;BME280;16331;52.528;13.342;2023-07-13T11:01:46;163009.84;;;26.53;54.29
29331;BME280;16331;52.528;13.342;2023-07-13T11:04:20;162906.97;;;26.16;54.60
29331;BME280;16331;52.528;13.342;2023-07-13T11:06:48;163033.50;;;26.62;52.81
29331;BME280;16331;52.528;13.342;2023-07-13T11:12:00;163359.06;;;27.79;48.37
29331;BME280;16331;52.528;13.342;2023-07-13T11:14:43;163340.97;;;27.73;46.36
29331;BME280;16331;52.528;13.342;2023-07-13T11:17:35;163296.47;;;27.57;46.85
29331;BME280;16331;52.528;13.342;2023-07-13T11:22:53;163804.84;;;29.40;44.46
29331;BME280;16331;52.528;13.342;2023-07-13T11:25:34;163842.44;;;29.53;42.34
29331;BME280;16331;52.528;13.342;2023-07-13T11:28:16;163914.97;;;29.80;41.81
29331;BME280;16331;52.528;13.342;2023-07-13T11:36:04;164046.06;;;30.27;37.61
29331;BME280;16331;52.528;13.342;2023-07-13T11:38:39;164101.81;;;30.47;37.36
29331;BME280;16331;52.528;13.342;2023-07-13T11:41:19;164005.59;;;30.12;37.08
29331;BME280;16331;52.528;13.342;2023-07-13T11:43:50;163756.06;;;29.22;37.20
29331;BME280;16331;52.528;13.342;2023-07-13T11:46:30;163843.84;;;29.54;37.23
29331;BME280;16331;52.528;13.342;2023-07-13T11:48:57;163654.34;;;28.86;39.59
29331;BME280;16331;52.528;13.342;2023-07-13T11:51:33;163581.91;;;28.60;39.91
29331;BME280;16331;52.528;13.342;2023-07-13T11:57:10;163935.84;;;29.87;38.32
29331;BME280;16331;52.528;13.342;2023-07-13T11:59:42;164008.34;;;30.13;37.59
29331;BME280;16331;52.528;13.342;2023-07-13T12:02:29;163829.91;;;29.49;38.46
29331;BME280;16331;52.528;13.342;2023-07-13T12:04:58;163955.38;;;29.94;38.64
29331;BME280;16331;52.528;13.342;2023-07-13T12:07:31;164415.78;;;31.60;36.45
29331;BME280;16331;52.528;13.342;2023-07-13T12:12:53;164273.44;;;31.09;36.22
29331;BME280;16331;52.528;13.342;2023-07-13T12:18:01;164496.75;;;31.89;35.54
29331;BME280;16331;52.528;13.342;2023-07-13T12:20:33;164439.47;;;31.68;35.93
29331;BME280;16331;52.528;13.342;2023-07-13T12:23:01;164284.56;;;31.13;36.42
29331;BME280;16331;52.528;13.342;2023-07-13T12:25:29;164336.22;;;31.31;36.04
29331;BME280;16331;52.528;13.342;2023-07-13T12:27:56;164315.25;;;31.24;35.54
29331;BME280;16331;52.528;13.342;2023-07-13T12:30:29;164309.66;;;31.22;35.98
29331;BME280;16331;52.528;13.342;2023-07-13T12:33:11;164047.41;;;30.27;37.38
29331;BME280;16331;52.528;13.342;2023-07-13T12:35:51;163949.78;;;29.92;36.91
29331;BME280;16331;52.528;13.342;2023-07-13T12:38:26;163815.97;;;29.44;37.11
29331;BME280;16331;52.528;13.342;2023-07-13T12:40:56;164421.34;;;31.62;34.53
29331;BME280;16331;52.528;13.342;2023-07-13T12:43:33;164331.97;;;31.30;33.94
29331;BME280;16331;52.528;13.342;2023-07-13T12:46:35;164351.59;;;31.37;34.03
29331;BME280;16331;52.528;13.342;2023-07-13T12:49:07;163800.66;;;29.38;36.83
29331;BME280;16331;52.528;13.342;2023-07-13T12:51:34;164111.56;;;30.50;34.79
29331;BME280;16331;52.528;13.342;2023-07-13T12:54:19;164083.69;;;30.40;34.30
29331;BME280;16331;52.528;13.342;2023-07-13T12:56:49;163703.09;;;29.03;36.54
29331;BME280;16331;52.528;13.342;2023-07-13T12:59:20;163430.13;;;28.05;38.92
29331;BME280;16331;52.528;13.342;2023-07-13T13:01:47;163361.91;;;27.80;39.20
29331;BME280;16331;52.528;13.342;2023-07-13T13:04:16;163359.06;;;27.79;40.26
29331;BME280;16331;52.528;13.342;2023-07-13T13:06:44;163673.81;;;28.93;39.76
29331;BME280;16331;52.528;13.342;2023-07-13T13:09:17;164269.19;;;31.07;35.50
29331;BME280;16331;52.528;13.342;2023-07-13T13:11:44;164798.47;;;32.97;33.02
29331;BME280;16331;52.528;13.342;2023-07-13T13:14:14;164593.09;;;32.23;33.45
29331;BME280;16331;52.528;13.342;2023-07-13T13:16:52;164753.72;;;32.81;32.96
29331;BME280;16331;52.528;13.342;2023-07-13T13:19:26;164890.66;;;33.30;32.07
29331;BME280;16331;52.528;13.342;2023-07-13T13:21:54;164404.59;;;31.56;34.19
29331;BME280;16331;52.528;13.342;2023-07-13T13:24:24;164477.19;;;31.82;34.09
29331;BME280;16331;52.528;13.342;2023-07-13T13:26:52;164574.94;;;32.17;32.75
29331;BME280;16331;52.528;13.342;2023-07-13T13:29:24;164741.13;;;32.77;31.79